Time;durP1;ratioP1;P1;durP2;ratioP2;P2;SDS_P1;SDS_P2;PMS_P1;PMS_P2;Temp;Humidity;BMP_temperature;BMP_pressure;BME280_temperature;BME280_humidity;BME280_pressure;Samples;Min_cycle;Max_cycle;Signal;HPM_P1;HPM_P2
2023/04/03 00:01:38;;;;;;;8.60;3.47;;;-0.20;99.90;;;;;;5002617;28;20494;-50
2023/04/03 00:04:04;;;;;;;3.70;2.80;;;-0.20;99.90;;;;;;5011059;28;20489;-50
2023/04/03 00:06:31;;;;;;;3.30;2.73;;;-0.30;99.90;;;;;;5000704;28;20464;-50
2023/04/03 00:08:57;;;;;;;3.83;1.97;;;-0.30;99.90;;;;;;5031751;28;20531;-50
2023/04/03 00:11:25;;;;;;;2.77;1.87;;;-0.30;99.90;;;;;;5032399;28;20453;-50
2023/04/03 00:13:51;;;;;;;3.60;2.23;;;-0.30;99.90;;;;;;5015048;28;21016;-50
2023/04/03 00:16:18;;;;;;;5.40;2.13;;;-0.30;99.90;;;;;;5030165;28;20518;-50
2023/04/03 00:18:46;;;;;;;2.63;1.67;;;-0.40;99.90;;;;;;5008106;28;20454;-50
2023/04/03 00:21:14;;;;;;;6.07;2.60;;;-0.40;99.90;;;;;;5001211;28;20832;-49
2023/04/03 00:23:40;;;;;;;2.97;1.73;;;-0.40;99.90;;;;;;5009023;28;20485;-49
2023/04/03 00:26:08;;;;;;;2.80;1.97;;;-0.40;99.90;;;;;;5001710;28;20488;-53
2023/04/03 00:28:35;;;;;;;2.97;1.87;;;-0.40;99.90;;;;;;5007869;28;20463;-55
2023/04/03 00:31:01;;;;;;;5.23;2.10;;;-0.40;99.90;;;;;;4999964;28;20517;-55
2023/04/03 00:33:28;;;;;;;3.60;2.60;;;-0.40;99.90;;;;;;5014279;28;20488;-55
2023/04/03 00:35:56;;;;;;;4.63;2.43;;;-0.50;99.90;;;;;;5002575;28;20461;-55
2023/04/03 00:38:22;;;;;;;4.00;2.23;;;-0.50;99.90;;;;;;5012239;28;20496;-56
2023/04/03 00:40:50;;;;;;;9.70;2.53;;;-0.50;99.90;;;;;;5014290;28;20491;-55
2023/04/03 00:43:20;;;;;;;8.17;2.57;;;-0.50;99.90;;;;;;5007903;28;20516;-54
2023/04/03 00:45:48;;;;;;;3.20;2.50;;;-0.50;99.90;;;;;;5005451;28;20462;-54
2023/04/03 00:48:19;;;;;;;5.90;2.10;;;-0.50;99.90;;;;;;5021771;28;20449;-54
2023/04/03 00:50:46;;;;;;;4.57;2.57;;;-0.50;99.90;;;;;;5004679;28;20503;-54
2023/04/03 00:53:17;;;;;;;2.77;2.43;;;-0.60;99.90;;;;;;5012743;28;20509;-56
2023/04/03 00:55:44;;;;;;;5.00;2.57;;;-0.50;99.90;;;;;;5002417;28;20462;-54
2023/04/03 00:58:12;;;;;;;4.47;2.30;;;-0.60;99.90;;;;;;5014226;28;20458;-55
2023/04/03 01:00:41;;;;;;;5.43;2.33;;;-0.60;99.90;;;;;;5013858;28;20480;-55
2023/04/03 01:03:07;;;;;;;4.67;1.83;;;-0.60;99.90;;;;;;5013798;28;20489;-55
2023/04/03 01:05:34;;;;;;;8.13;2.33;;;-0.60;99.90;;;;;;5003306;28;20464;-55
2023/04/03 01:08:01;;;;;;;5.97;2.50;;;-0.70;99.90;;;;;;5007432;28;20556;-55
2023/04/03 01:10:29;;;;;;;4.50;2.03;;;-0.80;99.90;;;;;;5012836;28;20515;-54
2023/04/03 01:12:56;;;;;;;5.47;2.40;;;-0.80;99.90;;;;;;5011602;28;20546;-54
2023/04/03 01:15:26;;;;;;;4.70;2.10;;;-0.80;99.90;;;;;;5012961;28;20470;-54
2023/04/03 01:17:56;;;;;;;4.63;2.40;;;-0.80;99.90;;;;;;5020833;28;20869;-55
2023/04/03 01:20:48;;;;;;;3.20;2.27;;;-0.80;99.90;;;;;;5000224;28;20484;-55
2023/04/03 01:23:44;;;;;;;3.40;2.00;;;-0.90;99.90;;;;;;5022722;28;20481;-56
2023/04/03 01:26:13;;;;;;;7.03;2.20;;;-0.90;99.90;;;;;;5007669;28;20490;-54
2023/04/03 01:28:39;;;;;;;2.87;2.03;;;-0.90;1.40;;;;;;5011897;28;20472;-56
2023/04/03 01:31:14;;;;;;;2.40;2.10;;;-0.90;99.90;;;;;;5011101;28;20814;-56
2023/04/03 01:33:43;;;;;;;4.80;2.10;;;-0.90;99.90;;;;;;4995068;28;20476;-54
2023/04/03 01:36:10;;;;;;;6.20;2.87;;;-1.00;99.90;;;;;;5023203;28;20492;-55
2023/04/03 01:38:37;;;;;;;3.20;2.00;;;-1.00;99.90;;;;;;5004158;28;20474;-50
2023/04/03 01:41:03;;;;;;;2.63;2.00;;;-1.00;99.90;;;;;;5012018;28;20521;-55
2023/04/03 01:43:30;;;;;;;6.80;2.00;;;-1.00;99.90;;;;;;5006490;28;20543;-51
2023/04/03 01:45:56;;;;;;;6.90;2.40;;;-1.00;99.90;;;;;;5026687;28;20444;-51
2023/04/03 01:48:23;;;;;;;5.37;2.20;;;-1.10;99.90;;;;;;5030649;28;20949;-52
2023/04/03 01:50:51;;;;;;;6.87;2.50;;;-1.10;99.90;;;;;;5009985;28;20540;-55
2023/04/03 01:53:18;;;;;;;2.57;1.60;;;-1.10;99.90;;;;;;5012867;28;20482;-50
2023/04/03 01:55:45;;;;;;;4.20;1.93;;;-1.10;99.90;;;;;;5021235;28;20855;-51
2023/04/03 01:58:11;;;;;;;5.07;2.10;;;-1.10;99.90;;;;;;5007399;28;20459;-52
2023/04/03 02:00:38;;;;;;;5.77;2.10;;;-1.10;99.90;;;;;;5007182;28;21011;-52
2023/04/03 02:03:04;;;;;;;2.97;1.90;;;-1.10;99.90;;;;;;5015955;28;20558;-52
2023/04/03 02:05:31;;;;;;;3.83;2.03;;;-1.20;99.90;;;;;;5019071;28;20541;-52
2023/04/03 02:07:59;;;;;;;5.53;1.90;;;-1.30;99.90;;;;;;5019231;28;20494;-52
2023/04/03 02:10:26;;;;;;;4.90;1.97;;;-1.30;99.90;;;;;;5004914;28;20907;-52
2023/04/03 02:12:53;;;;;;;5.40;2.53;;;-1.40;99.90;;;;;;5001618;28;20551;-51
2023/04/03 02:15:19;;;;;;;2.20;1.70;;;-1.40;99.90;;;;;;5011227;28;20475;-51
2023/04/03 02:17:46;;;;;;;4.73;2.07;;;-1.40;83.00;;;;;;5008662;28;20531;-52
2023/04/03 02:20:12;;;;;;;2.07;1.80;;;-1.40;86.80;;;;;;5010358;28;21021;-51
2023/04/03 02:22:39;;;;;;;2.70;1.60;;;-1.40;86.20;;;;;;5013737;28;20465;-52
2023/04/03 02:25:08;;;;;;;4.77;2.10;;;-1.30;64.70;;;;;;5018441;28;20471;-52
2023/04/03 02:27:35;;;;;;;8.17;2.40;;;-1.40;73.00;;;;;;5017898;28;20490;-51
2023/04/03 02:30:01;;;;;;;6.73;2.47;;;-1.40;70.00;;;;;;4996941;28;20470;-52
2023/04/03 02:32:28;;;;;;;2.00;1.77;;;-1.30;74.10;;;;;;5011335;28;20653;-51
2023/04/03 02:34:55;;;;;;;1.70;1.47;;;-1.40;78.60;;;;;;5002764;28;20458;-51
2023/04/03 02:37:21;;;;;;;4.23;2.27;;;-1.40;82.30;;;;;;5000192;28;20891;-51
2023/04/03 02:39:48;;;;;;;6.97;2.20;;;-1.30;78.60;;;;;;4996292;28;20491;-52
2023/04/03 02:42:16;;;;;;;2.70;1.70;;;-1.30;80.90;;;;;;5017441;28;20539;-52
2023/04/03 02:44:42;;;;;;;4.90;1.97;;;-1.40;81.90;;;;;;5005369;28;20490;-52
2023/04/03 02:47:09;;;;;;;4.97;2.67;;;-1.30;84.00;;;;;;5018005;28;20461;-53
2023/04/03 02:49:35;;;;;;;2.20;2.00;;;-1.30;87.90;;;;;;5011470;28;20471;-52
2023/04/03 02:52:02;;;;;;;2.50;1.80;;;-1.30;85.10;;;;;;5012438;28;20485;-52
2023/04/03 02:54:30;;;;;;;6.30;2.03;;;-1.30;89.20;;;;;;5014260;28;20466;-51
2023/04/03 02:56:57;;;;;;;2.77;2.17;;;-1.30;90.10;;;;;;5018138;28;20460;-51
2023/04/03 02:59:25;;;;;;;4.33;2.20;;;-1.30;94.80;;;;;;5008082;28;20524;-52
2023/04/03 03:01:52;;;;;;;3.57;1.73;;;-1.30;95.50;;;;;;5005243;28;20573;-51
2023/04/03 03:04:19;;;;;;;7.73;3.00;;;-1.30;87.70;;;;;;5014792;28;20505;-51
2023/04/03 03:06:46;;;;;;;12.10;2.77;;;-1.30;91.60;;;;;;5006950;28;20457;-51
2023/04/03 03:09:13;;;;;;;3.13;1.77;;;-1.30;95.20;;;;;;5003623;28;20556;-51
2023/04/03 03:11:40;;;;;;;9.53;1.90;;;-1.30;97.20;;;;;;5020286;28;20515;-51
2023/04/03 03:14:07;;;;;;;14.27;1.90;;;-1.30;95.10;;;;;;5010502;28;20489;-51
2023/04/03 03:16:35;;;;;;;8.83;1.90;;;-1.30;89.70;;;;;;5012059;28;20466;-51
2023/04/03 03:19:01;;;;;;;4.17;1.70;;;-1.30;92.50;;;;;;5021153;28;20476;-52
2023/04/03 03:21:28;;;;;;;2.60;1.50;;;-1.30;91.40;;;;;;5014250;28;20548;-52
2023/04/03 03:23:55;;;;;;;2.80;1.63;;;-1.30;92.10;;;;;;5025197;28;20513;-51
2023/04/03 03:26:21;;;;;;;4.47;2.40;;;-1.40;92.10;;;;;;5019854;28;20522;-51
2023/04/03 03:28:48;;;;;;;3.17;1.73;;;-1.40;92.20;;;;;;5021231;28;20544;-50
2023/04/03 03:31:15;;;;;;;5.10;2.60;;;-1.30;81.20;;;;;;5021227;28;20455;-51
2023/04/03 03:33:43;;;;;;;4.63;2.53;;;-1.40;88.10;;;;;;5022462;28;20477;-52
2023/04/03 03:36:09;;;;;;;4.43;1.87;;;-1.30;91.60;;;;;;4999795;28;20520;-52
2023/04/03 03:38:36;;;;;;;4.00;1.73;;;-1.30;94.30;;;;;;5016128;28;20813;-51
2023/04/03 03:41:03;;;;;;;3.47;2.03;;;-1.40;93.30;;;;;;5014696;28;20483;-52
2023/04/03 03:43:30;;;;;;;5.57;2.30;;;-1.40;94.20;;;;;;5014612;28;20528;-51
2023/04/03 03:45:56;;;;;;;3.23;1.80;;;-1.40;87.30;;;;;;5018030;28;20515;-51
2023/04/03 03:48:24;;;;;;;8.73;2.57;;;-1.40;87.40;;;;;;5010154;28;20968;-52
2023/04/03 03:50:52;;;;;;;4.50;1.80;;;-1.40;88.00;;;;;;5010982;28;20549;-51
2023/04/03 03:53:19;;;;;;;6.33;1.63;;;-1.40;90.40;;;;;;5016066;28;20908;-51
2023/04/03 03:55:45;;;;;;;4.93;2.40;;;-1.50;91.10;;;;;;5024280;28;20541;-52
2023/04/03 03:58:12;;;;;;;2.60;2.00;;;-1.50;90.20;;;;;;5024474;28;20471;-51
2023/04/03 04:00:39;;;;;;;6.57;2.00;;;-1.60;88.60;;;;;;5001231;28;20462;-51
2023/04/03 04:03:05;;;;;;;3.07;2.00;;;-1.50;78.80;;;;;;5012844;28;20471;-51
2023/04/03 04:05:32;;;;;;;2.10;1.90;;;-1.50;79.70;;;;;;5007972;28;20494;-52
2023/04/03 04:08:00;;;;;;;2.73;1.70;;;-1.60;85.30;;;;;;5024293;28;20502;-51
2023/04/03 04:10:26;;;;;;;3.37;1.50;;;-1.50;77.10;;;;;;5019459;28;20497;-51
2023/04/03 04:12:53;;;;;;;5.60;2.33;;;-1.60;73.20;;;;;;5020493;28;20988;-51
2023/04/03 04:15:21;;;;;;;2.40;1.50;;;-1.60;70.60;;;;;;5017586;28;20530;-51
2023/04/03 04:17:48;;;;;;;4.20;2.00;;;-1.60;59.70;;;;;;5015237;28;20571;-51
2023/04/03 04:20:14;;;;;;;5.30;1.80;;;-1.60;61.40;;;;;;5011167;28;20515;-51
2023/04/03 04:22:41;;;;;;;3.03;2.10;;;-1.50;46.80;;;;;;5003425;28;20599;-52
2023/04/03 04:25:09;;;;;;;2.43;1.60;;;-1.50;50.20;;;;;;5000110;28;20831;-52
2023/04/03 04:27:36;;;;;;;3.23;1.70;;;-1.60;55.20;;;;;;5021216;28;20460;-51
2023/04/03 04:30:04;;;;;;;2.50;1.67;;;-1.60;51.90;;;;;;5005634;28;20472;-51
2023/04/03 04:32:30;;;;;;;1.83;1.53;;;-1.60;45.60;;;;;;5012163;28;20551;-51
2023/04/03 04:34:57;;;;;;;2.63;1.90;;;-1.60;43.20;;;;;;5008966;28;20531;-51
2023/04/03 04:37:24;;;;;;;3.33;1.67;;;-1.60;30.90;;;;;;5020298;28;20483;-52
2023/04/03 04:39:50;;;;;;;5.60;2.03;;;-1.60;30.80;;;;;;5015853;28;20457;-51
2023/04/03 04:42:18;;;;;;;4.57;2.00;;;-1.60;30.00;;;;;;5013302;28;20495;-51
2023/04/03 04:44:45;;;;;;;3.67;1.93;;;-1.60;33.60;;;;;;5031760;28;20448;-52
2023/04/03 04:47:11;;;;;;;5.30;1.93;;;-1.60;33.80;;;;;;5032032;28;20506;-52
2023/04/03 04:49:38;;;;;;;5.80;1.60;;;-1.60;34.60;;;;;;5027949;28;20508;-51
2023/04/03 04:52:05;;;;;;;5.17;2.23;;;-1.60;29.80;;;;;;5002279;28;20488;-51
2023/04/03 04:54:32;;;;;;;2.97;1.47;;;-1.60;34.40;;;;;;5010500;28;20497;-51
2023/04/03 04:56:58;;;;;;;5.17;1.83;;;-1.50;29.40;;;;;;5010553;28;20491;-51
2023/04/03 04:59:26;;;;;;;5.07;1.60;;;-1.50;29.90;;;;;;5010188;28;20804;-51
2023/04/03 05:01:53;;;;;;;2.70;2.00;;;-1.50;28.10;;;;;;5013697;28;20480;-53
2023/04/03 05:04:19;;;;;;;3.43;1.70;;;-1.50;25.70;;;;;;5018680;28;20457;-51
2023/04/03 05:06:46;;;;;;;3.93;1.93;;;-1.50;28.70;;;;;;5010083;28;20496;-50
2023/04/03 05:09:13;;;;;;;1.40;1.30;;;-1.50;27.10;;;;;;5014062;28;20463;-51
2023/04/03 05:11:39;;;;;;;4.03;1.60;;;-1.50;27.00;;;;;;5015633;28;20508;-52
2023/04/03 05:14:06;;;;;;;2.93;1.73;;;-1.40;27.40;;;;;;4994597;23;21123;-53
2023/04/03 05:16:35;;;;;;;4.70;1.77;;;-1.40;28.30;;;;;;4972203;28;20439;-54
2023/04/03 05:19:01;;;;;;;7.70;1.93;;;-1.40;28.30;;;;;;4972625;28;20451;-55
2023/04/03 05:21:31;;;;;;;3.03;1.50;;;-1.30;28.10;;;;;;4976625;28;20486;-55
2023/04/03 05:23:58;;;;;;;2.67;1.80;;;-1.30;28.00;;;;;;4973951;28;20487;-55
2023/04/03 05:26:26;;;;;;;1.87;1.40;;;-1.20;29.70;;;;;;4976336;28;20466;-55
2023/04/03 05:28:52;;;;;;;8.90;2.03;;;-1.10;32.50;;;;;;4982446;28;20451;-55
2023/04/03 05:31:19;;;;;;;4.83;2.20;;;-1.00;34.40;;;;;;4964132;28;20464;-55
2023/04/03 05:33:47;;;;;;;3.27;1.53;;;-0.90;38.60;;;;;;4975327;28;20518;-55
2023/04/03 05:36:14;;;;;;;2.90;1.93;;;-0.90;41.70;;;;;;4979672;28;20533;-55
2023/04/03 05:38:41;;;;;;;6.67;1.90;;;-0.80;49.20;;;;;;4981039;28;20518;-54
2023/04/03 05:41:07;;;;;;;5.23;1.83;;;-0.60;47.10;;;;;;4971778;28;20468;-54
2023/04/03 05:43:34;;;;;;;4.70;2.17;;;-0.60;51.60;;;;;;4966373;28;20479;-53
2023/04/03 05:46:01;;;;;;;6.47;5.23;;;-0.40;57.70;;;;;;4960694;28;20461;-56
2023/04/03 05:48:27;;;;;;;6.00;4.30;;;-0.30;66.50;;;;;;4967514;28;20535;-53
2023/04/03 05:50:55;;;;;;;3.70;3.07;;;-0.20;74.80;;;;;;4964359;28;20523;-53
2023/04/03 05:53:26;;;;;;;7.30;4.13;;;-0.10;85.90;;;;;;4968953;28;20575;-54
2023/04/03 05:55:53;;;;;;;6.53;5.67;;;-0.10;95.70;;;;;;4985602;28;20863;-54
2023/04/03 05:58:20;;;;;;;5.93;4.30;;;0.00;99.90;;;;;;4983485;28;21071;-55
2023/04/03 06:00:46;;;;;;;12.57;7.47;;;0.10;99.90;;;;;;4967538;28;20462;-56
2023/04/03 06:03:13;;;;;;;5.70;4.53;;;0.30;99.90;;;;;;4975029;28;20501;-55
2023/04/03 06:05:40;;;;;;;7.90;4.13;;;0.60;99.90;;;;;;4955737;28;20549;-55
2023/04/03 06:08:08;;;;;;;5.50;2.00;;;1.00;99.90;;;;;;4967689;28;20548;-54
2023/04/03 06:10:35;;;;;;;3.40;2.40;;;1.40;99.90;;;;;;4971998;28;20473;-53
2023/04/03 06:13:02;;;;;;;4.23;3.83;;;1.60;99.90;;;;;;4967044;28;20572;-55
2023/04/03 06:15:29;;;;;;;6.00;2.43;;;1.60;37.80;;;;;;4970251;28;20531;-54
2023/04/03 06:17:56;;;;;;;3.20;2.03;;;1.90;49.80;;;;;;4985996;28;20476;-54
2023/04/03 06:20:22;;;;;;;4.00;2.13;;;2.10;59.60;;;;;;4977153;28;20554;-54
2023/04/03 06:22:50;;;;;;;5.10;2.07;;;2.30;71.20;;;;;;4955536;28;20568;-55
2023/04/03 06:25:18;;;;;;;4.50;3.37;;;2.40;79.00;;;;;;4975640;28;22727;-54
2023/04/03 06:27:45;;;;;;;2.53;1.60;;;2.20;79.70;;;;;;4959283;28;20460;-54
2023/04/03 06:30:12;;;;;;;5.20;3.40;;;2.20;81.60;;;;;;4952510;28;20464;-54
2023/04/03 06:32:39;;;;;;;3.27;2.60;;;2.30;87.00;;;;;;4963876;28;20570;-54
2023/04/03 06:35:07;;;;;;;6.67;2.20;;;2.40;94.70;;;;;;4959809;28;20555;-53
2023/04/03 06:37:33;;;;;;;8.00;6.77;;;2.60;96.60;;;;;;4967005;28;21346;-52
2023/04/03 06:40:01;;;;;;;7.60;5.30;;;2.90;99.90;;;;;;4969436;28;20467;-54
2023/04/03 06:42:29;;;;;;;2.57;2.20;;;3.00;99.90;;;;;;4958915;28;20489;-54
2023/04/03 06:44:55;;;;;;;3.00;2.20;;;3.20;99.90;;;;;;4959279;28;20465;-55
2023/04/03 06:47:22;;;;;;;2.30;1.70;;;3.20;99.90;;;;;;4967445;28;20481;-54
2023/04/03 06:49:49;;;;;;;3.83;2.63;;;3.40;99.90;;;;;;4978896;28;20472;-54
2023/04/03 06:52:15;;;;;;;13.73;2.90;;;3.20;99.90;;;;;;4961765;28;20460;-56
2023/04/03 06:54:42;;;;;;;2.03;1.83;;;3.10;99.90;;;;;;4969302;28;20550;-55
2023/04/03 06:57:09;;;;;;;3.23;1.70;;;2.90;99.90;;;;;;4965232;28;20552;-56
2023/04/03 06:59:37;;;;;;;4.47;2.07;;;2.80;99.90;;;;;;4973553;28;20489;-54
2023/04/03 07:02:03;;;;;;;8.93;3.27;;;2.90;99.90;;;;;;4971472;28;20488;-54
2023/04/03 07:04:30;;;;;;;3.07;2.40;;;3.00;99.90;;;;;;4972907;28;21017;-55
2023/04/03 07:06:57;;;;;;;3.53;1.40;;;3.00;99.90;;;;;;4961899;28;20554;-55
2023/04/03 07:09:23;;;;;;;6.50;2.07;;;3.10;99.90;;;;;;4963028;28;20473;-54
2023/04/03 07:11:50;;;;;;;4.63;3.57;;;3.20;99.90;;;;;;4961489;28;21019;-55
2023/04/03 07:14:17;;;;;;;5.90;2.00;;;3.30;99.90;;;;;;4955781;28;20607;-54
2023/04/03 07:16:45;;;;;;;6.87;2.17;;;3.40;99.90;;;;;;4959674;28;20468;-54
2023/04/03 07:19:11;;;;;;;2.50;2.30;;;3.60;99.90;;;;;;4959891;28;20468;-57
2023/04/03 07:21:38;;;;;;;4.83;1.77;;;3.60;99.90;;;;;;4955843;28;20471;-55
2023/04/03 07:24:05;;;;;;;1.60;1.50;;;3.70;99.90;;;;;;4963710;28;20479;-54
2023/04/03 07:26:32;;;;;;;2.43;1.73;;;3.90;99.90;;;;;;4962692;28;20967;-51
2023/04/03 07:28:59;;;;;;;4.37;2.20;;;4.20;99.90;;;;;;4954137;28;20470;-51
2023/04/03 07:31:26;;;;;;;5.23;2.30;;;4.20;99.90;;;;;;4962447;28;20464;-51
2023/04/03 07:33:54;;;;;;;2.50;1.77;;;4.50;99.90;;;;;;4963038;28;20493;-52
2023/04/03 07:36:23;;;;;;;2.70;1.50;;;4.20;99.90;;;;;;4962776;28;20522;-51
2023/04/03 07:38:49;;;;;;;1.80;1.70;;;4.40;99.90;;;;;;4962241;28;20489;-52
2023/04/03 07:41:19;;;;;;;3.70;1.80;;;4.40;99.90;;;;;;4966407;28;20541;-51
2023/04/03 07:43:49;;;;;;;7.43;2.20;;;4.60;99.90;;;;;;4944883;28;21143;-51
2023/04/03 07:46:17;;;;;;;4.93;1.97;;;4.40;99.90;;;;;;4954266;28;20497;-52
2023/04/03 07:48:43;;;;;;;5.07;1.33;;;4.40;99.90;;;;;;4966923;28;20491;-52
2023/04/03 07:51:11;;;;;;;5.63;2.27;;;4.70;99.90;;;;;;4961939;28;20967;-51
2023/04/03 07:53:38;;;;;;;6.80;1.70;;;4.80;99.90;;;;;;4963840;28;20489;-51
2023/04/03 07:56:05;;;;;;;3.10;1.33;;;4.80;99.90;;;;;;4968368;28;20968;-52
2023/04/03 07:58:32;;;;;;;4.40;2.17;;;4.50;99.90;;;;;;4961296;28;20471;-51
2023/04/03 08:00:58;;;;;;;2.67;1.83;;;4.00;99.90;;;;;;4977181;28;20961;-51
2023/04/03 08:03:25;;;;;;;7.20;1.83;;;3.90;99.90;;;;;;4972410;28;20496;-52
2023/04/03 08:05:53;;;;;;;6.37;1.40;;;4.10;99.90;;;;;;4964200;28;20528;-50
2023/04/03 08:08:23;;;;;;;2.07;1.37;;;4.60;99.90;;;;;;4970812;28;20456;-50
2023/04/03 08:10:51;;;;;;;2.03;1.07;;;5.30;99.90;;;;;;4965978;28;20961;-50
2023/04/03 08:13:17;;;;;;;2.17;1.40;;;5.90;99.90;;;;;;4969465;28;20487;-51
2023/04/03 08:15:44;;;;;;;3.80;1.50;;;6.00;99.90;;;;;;4960949;28;20460;-50
2023/04/03 08:18:11;;;;;;;2.53;1.50;;;6.40;99.90;;;;;;4971619;28;20479;-50
2023/04/03 08:20:39;;;;;;;6.13;3.97;;;5.90;99.90;;;;;;4966185;28;20884;-50
2023/04/03 08:23:05;;;;;;;9.53;8.43;;;5.50;99.90;;;;;;4964363;28;21092;-50
2023/04/03 08:25:33;;;;;;;2.30;1.67;;;4.90;99.90;;;;;;4962857;28;20468;-50
2023/04/03 08:28:01;;;;;;;1.93;1.50;;;4.70;99.90;;;;;;4965071;28;20464;-50
2023/04/03 08:30:28;;;;;;;1.43;1.00;;;4.90;99.90;;;;;;4964163;28;20475;-50
2023/04/03 08:32:55;;;;;;;4.00;2.40;;;4.90;99.90;;;;;;4959916;28;20532;-50
2023/04/03 08:35:21;;;;;;;6.23;2.00;;;4.80;99.90;;;;;;4970483;28;20453;-50
2023/04/03 08:37:48;;;;;;;4.60;1.17;;;4.80;99.90;;;;;;4955422;28;20593;-51
2023/04/03 08:40:16;;;;;;;2.03;1.63;;;4.90;99.90;;;;;;4972702;28;20467;-51
2023/04/03 08:42:54;;;;;;;3.97;1.67;;;4.60;99.90;;;;;;4967782;28;20531;-50
2023/04/03 08:45:29;;;;;;;6.40;1.43;;;4.60;99.90;;;;;;4966410;28;20462;-51
2023/04/03 08:48:05;;;;;;;1.80;1.40;;;4.60;99.90;;;;;;4964678;28;21027;-51
2023/04/03 08:50:37;;;;;;;1.80;1.10;;;4.70;99.90;;;;;;4967090;28;20507;-50
2023/04/03 08:53:06;;;;;;;2.73;1.40;;;4.70;99.90;;;;;;4967141;28;20995;-50
2023/04/03 08:55:36;;;;;;;4.20;2.20;;;4.70;99.90;;;;;;4959541;28;20547;-51
2023/04/03 08:58:06;;;;;;;1.73;1.30;;;4.70;99.90;;;;;;4967975;28;20556;-50
2023/04/03 09:00:42;;;;;;;3.80;1.50;;;4.90;99.90;;;;;;4957536;28;20555;-51
2023/04/03 09:03:13;;;;;;;3.00;1.73;;;5.10;99.90;;;;;;4965275;28;20603;-50
2023/04/03 09:05:43;;;;;;;3.53;1.80;;;5.90;99.90;;;;;;4963297;28;20464;-50
2023/04/03 09:08:22;;;;;;;3.70;1.63;;;5.60;99.90;;;;;;4968294;28;20987;-51
2023/04/03 09:10:50;;;;;;;4.27;1.77;;;5.30;99.90;;;;;;4966207;28;20479;-50
2023/04/03 09:13:27;;;;;;;2.67;1.43;;;5.00;99.90;;;;;;4969119;28;20492;-50
2023/04/03 09:15:55;;;;;;;1.50;1.13;;;5.20;99.90;;;;;;4963062;28;20532;-51
2023/04/03 09:18:28;;;;;;;2.33;1.60;;;5.60;99.90;;;;;;4971068;28;20478;-50
2023/04/03 09:21:02;;;;;;;1.57;1.30;;;6.50;99.90;;;;;;4958786;28;20461;-50
2023/04/03 09:23:33;;;;;;;3.37;1.53;;;5.60;99.90;;;;;;4967992;28;20507;-50
2023/04/03 09:26:04;;;;;;;5.07;1.70;;;5.80;99.90;;;;;;4954163;28;20468;-50
2023/04/03 09:28:38;;;;;;;2.50;1.60;;;6.00;99.90;;;;;;4964757;28;20564;-50
2023/04/03 09:31:17;;;;;;;3.23;2.80;;;6.00;99.90;;;;;;4951083;28;20466;-50
2023/04/03 09:33:44;;;;;;;2.40;1.43;;;6.00;99.90;;;;;;4954893;28;20563;-50
2023/04/03 09:36:11;;;;;;;2.40;1.23;;;6.00;99.90;;;;;;4957459;28;20964;-51
2023/04/03 09:38:37;;;;;;;2.67;1.30;;;5.80;99.90;;;;;;4951221;28;20465;-51
2023/04/03 09:41:07;;;;;;;4.83;2.03;;;6.10;99.90;;;;;;4960365;28;20522;-50
2023/04/03 09:43:38;;;;;;;1.80;1.43;;;6.00;99.90;;;;;;4961200;28;20579;-50
2023/04/03 09:46:30;;;;;;;3.80;1.20;;;6.20;99.90;;;;;;4962262;28;20469;-51
2023/04/03 09:48:59;;;;;;;4.13;1.53;;;5.80;99.90;;;;;;4978665;28;20504;-50
2023/04/03 09:51:28;;;;;;;1.57;1.40;;;6.40;99.90;;;;;;4961386;28;20477;-50
2023/04/03 09:53:55;;;;;;;1.60;1.30;;;7.50;99.90;;;;;;4965961;28;20870;-50
2023/04/03 09:56:25;;;;;;;1.30;1.13;;;7.30;99.90;;;;;;4969660;28;20538;-51
2023/04/03 09:59:09;;;;;;;3.70;1.50;;;6.90;99.90;;;;;;4960498;28;20460;-51
2023/04/03 10:01:37;;;;;;;3.60;1.33;;;6.70;99.90;;;;;;4966056;28;20458;-51
2023/04/03 10:04:07;;;;;;;1.90;1.60;;;6.50;99.90;;;;;;4962353;28;20495;-51
2023/04/03 10:06:36;;;;;;;2.60;1.60;;;6.30;99.90;;;;;;4960008;28;20512;-51
2023/04/03 10:09:05;;;;;;;1.60;1.50;;;7.20;99.90;;;;;;4967780;28;20515;-51
2023/04/03 10:11:32;;;;;;;3.80;2.20;;;9.10;99.90;;;;;;4966361;28;20895;-50
2023/04/03 10:14:03;;;;;;;5.30;1.60;;;9.60;99.90;;;;;;4979723;28;20529;-51
2023/04/03 10:16:41;;;;;;;2.60;1.60;;;9.90;99.90;;;;;;4961661;28;20467;-52
2023/04/03 10:19:26;;;;;;;1.40;1.30;;;10.30;99.90;;;;;;4977895;28;20469;-50
2023/04/03 10:21:59;;;;;;;1.70;1.30;;;10.60;99.90;;;;;;4962409;28;20464;-51
2023/04/03 10:24:30;;;;;;;2.73;1.30;;;9.40;99.90;;;;;;4964736;28;20553;-50
2023/04/03 10:27:00;;;;;;;1.57;1.10;;;8.00;99.90;;;;;;4954985;28;20457;-51
2023/04/03 10:29:40;;;;;;;2.67;1.30;;;7.00;99.90;;;;;;4970994;28;20523;-51
2023/04/03 10:32:37;;;;;;;2.70;1.20;;;6.50;99.90;;;;;;4961524;28;20472;-51
2023/04/03 10:35:15;;;;;;;1.50;1.10;;;6.20;99.90;;;;;;4967294;28;20471;-51
2023/04/03 10:37:55;;;;;;;1.50;1.40;;;6.70;99.90;;;;;;4964897;28;20526;-51
2023/04/03 10:40:31;;;;;;;6.00;1.47;;;6.90;99.90;;;;;;4966705;28;20473;-50
2023/04/03 10:43:05;;;;;;;1.77;1.17;;;7.40;99.90;;;;;;4957915;28;20523;-50
2023/04/03 10:45:47;;;;;;;1.63;1.20;;;7.30;99.90;;;;;;4954786;28;20554;-50
2023/04/03 10:48:22;;;;;;;6.33;2.27;;;7.50;99.90;;;;;;4964115;28;20469;-50
2023/04/03 10:50:56;;;;;;;1.90;1.10;;;7.40;99.90;;;;;;4959938;28;20539;-50
2023/04/03 10:53:32;;;;;;;3.23;1.77;;;7.10;99.90;;;;;;4966089;28;20506;-50
2023/04/03 10:56:06;;;;;;;6.23;3.90;;;7.10;99.90;;;;;;4966452;28;20459;-50
2023/04/03 10:58:36;;;;;;;5.10;1.70;;;7.50;99.90;;;;;;4960817;28;20551;-50
2023/04/03 11:01:09;;;;;;;4.00;1.50;;;7.80;99.90;;;;;;4970404;28;20485;-50
2023/04/03 11:03:40;;;;;;;1.70;1.40;;;8.00;99.90;;;;;;4975282;28;20487;-50
2023/04/03 11:06:10;;;;;;;3.27;1.60;;;8.30;99.90;;;;;;4967116;28;20492;-50
2023/04/03 11:08:43;;;;;;;1.50;1.27;;;7.50;99.90;;;;;;4979269;28;20511;-50
2023/04/03 11:11:14;;;;;;;2.03;1.53;;;6.90;99.90;;;;;;4970256;28;20456;-51
2023/04/03 11:13:45;;;;;;;0.90;0.90;;;6.80;99.90;;;;;;4970804;23;20991;-53
2023/04/03 11:16:20;;;;;;;1.73;1.10;;;6.90;99.90;;;;;;5046061;28;20911;-52
2023/04/03 11:18:53;;;;;;;2.90;1.60;;;6.70;99.90;;;;;;5055230;28;20467;-54
2023/04/03 11:21:25;;;;;;;2.20;1.97;;;6.40;99.90;;;;;;5058616;28;20475;-54
2023/04/03 11:23:54;;;;;;;5.63;2.60;;;6.40;99.90;;;;;;5058517;28;20485;-54
2023/04/03 11:26:23;;;;;;;2.10;1.50;;;6.40;99.90;;;;;;5059839;28;20967;-55
2023/04/03 11:28:54;;;;;;;2.67;2.40;;;6.50;99.90;;;;;;5052010;28;20460;-55
2023/04/03 11:31:33;;;;;;;6.03;2.30;;;6.40;99.90;;;;;;5050156;28;20456;-55
2023/04/03 11:34:16;;;;;;;3.53;2.07;;;6.40;99.90;;;;;;5046516;28;20531;-55
2023/04/03 11:36:47;;;;;;;1.50;1.30;;;6.40;99.90;;;;;;5049353;28;21025;-56
2023/04/03 11:39:22;;;;;;;1.87;1.73;;;6.40;99.90;;;;;;5051265;28;20540;-55
2023/04/03 11:41:49;;;;;;;3.37;1.40;;;6.40;99.90;;;;;;5064759;28;20474;-55
2023/04/03 11:44:38;;;;;;;1.37;1.27;;;6.50;99.90;;;;;;5045148;28;20489;-55
2023/04/03 11:47:07;;;;;;;4.70;1.70;;;6.50;99.90;;;;;;5041027;28;20469;-55
2023/04/03 11:49:57;;;;;;;1.63;1.13;;;6.30;99.90;;;;;;5051334;28;20465;-54
2023/04/03 11:52:56;;;;;;;1.70;1.37;;;6.40;99.90;;;;;;5051988;28;20480;-55
2023/04/03 11:55:58;;;;;;;2.03;1.60;;;6.30;99.90;;;;;;5047098;28;20850;-56
2023/04/03 11:58:27;;;;;;;2.40;1.23;;;6.00;99.90;;;;;;5049993;28;20506;-55
2023/04/03 12:01:05;;;;;;;5.40;2.90;;;5.80;99.90;;;;;;5044982;28;20465;-54
2023/04/03 12:04:02;;;;;;;10.63;6.40;;;5.80;99.90;;;;;;5049198;28;20487;-55
2023/04/03 12:07:02;;;;;;;4.50;3.60;;;6.00;99.90;;;;;;5047461;28;20465;-55
2023/04/03 12:09:34;;;;;;;8.30;4.67;;;6.00;99.90;;;;;;5044434;28;20512;-55
2023/04/03 12:12:21;;;;;;;9.90;7.73;;;5.70;99.90;;;;;;5047452;28;20460;-56
2023/04/03 12:14:48;;;;;;;4.67;2.80;;;5.90;99.90;;;;;;5051104;28;20552;-56
2023/04/03 12:17:23;;;;;;;15.03;13.07;;;6.10;99.90;;;;;;5049791;28;20522;-55
2023/04/03 12:19:50;;;;;;;8.70;5.83;;;6.30;99.90;;;;;;5050364;28;21302;-56
2023/04/03 12:22:20;;;;;;;3.63;2.40;;;6.20;99.90;;;;;;5052289;28;20517;-49
2023/04/03 12:24:49;;;;;;;8.50;3.17;;;6.40;99.90;;;;;;5049235;28;20488;-56
2023/04/03 12:27:35;;;;;;;8.77;2.37;;;6.40;99.90;;;;;;5051876;28;20471;-55
2023/04/03 12:30:14;;;;;;;6.10;2.00;;;6.40;99.90;;;;;;5049706;28;20985;-56
2023/04/03 12:33:05;;;;;;;9.00;3.70;;;6.30;99.90;;;;;;5054924;28;20455;-56
2023/04/03 12:35:37;;;;;;;5.67;3.10;;;6.20;99.90;;;;;;5051027;28;20480;-57
2023/04/03 12:38:25;;;;;;;4.30;3.77;;;6.20;99.90;;;;;;5048969;28;20461;-56
2023/04/03 12:40:58;;;;;;;6.27;2.77;;;6.20;99.90;;;;;;5042065;28;20461;-56
2023/04/03 12:43:37;;;;;;;3.83;2.30;;;6.40;99.90;;;;;;5046782;28;20460;-56
2023/04/03 12:46:11;;;;;;;1.97;1.80;;;6.60;99.90;;;;;;5046504;28;20878;-50
2023/04/03 12:48:47;;;;;;;2.30;2.10;;;6.80;99.90;;;;;;5032750;28;20472;-50
2023/04/03 12:51:16;;;;;;;5.60;1.63;;;6.50;99.90;;;;;;5049942;28;20529;-49
2023/04/03 12:53:45;;;;;;;3.17;1.50;;;6.70;99.90;;;;;;5050895;28;20500;-50
2023/04/03 12:56:24;;;;;;;3.00;1.43;;;6.50;99.90;;;;;;5049680;28;20499;-49
2023/04/03 12:58:53;;;;;;;2.50;1.80;;;6.50;99.90;;;;;;5042443;28;20481;-50
2023/04/03 13:01:23;;;;;;;2.60;2.40;;;6.60;99.90;;;;;;5032093;28;20610;-49
2023/04/03 13:03:53;;;;;;;2.50;2.30;;;6.50;99.90;;;;;;5051308;28;20489;-50
2023/04/03 13:06:23;;;;;;;5.63;2.53;;;6.40;99.90;;;;;;5049462;28;20529;-50